createdAt,value
2019-05-06T00:02:01.274Z,101545.22
2019-05-06T00:04:29.672Z,101543.65
2019-05-06T00:06:58.108Z,101536.87
2019-05-06T00:09:26.515Z,101542.67
2019-05-06T00:11:54.942Z,101544.91
2019-05-06T00:14:23.784Z,101547.00
2019-05-06T00:16:54.540Z,101543.72
2019-05-06T00:19:24.487Z,101541.87
2019-05-06T00:21:54.072Z,101540.88
2019-05-06T00:24:25.026Z,101547.56
2019-05-06T00:27:01.100Z,101537.64
2019-05-06T00:29:30.266Z,101535.68
2019-05-06T00:31:58.704Z,101538.87
2019-05-06T00:34:27.108Z,101534.84
2019-05-06T00:36:55.547Z,101532.70
2019-05-06T00:39:25.647Z,101530.25
2019-05-06T00:41:55.721Z,101525.72
2019-05-06T00:44:24.131Z,101527.52
2019-05-06T00:46:54.511Z,101519.68
2019-05-06T00:49:23.846Z,101516.69
2019-05-06T00:51:52.401Z,101526.09
2019-05-06T00:54:22.447Z,101514.67
2019-05-06T00:56:50.943Z,101520.30
2019-05-06T00:59:20.307Z,101517.96
2019-05-06T01:01:54.865Z,101521.54
2019-05-06T01:04:24.484Z,101520.05
2019-05-06T01:06:54.485Z,101518.20
2019-05-06T01:09:23.510Z,101523.14
2019-05-06T01:11:54.531Z,101524.34
2019-05-06T01:14:24.570Z,101525.20
2019-05-06T01:16:54.743Z,101518.95
2019-05-06T01:19:23.540Z,101515.77
2019-05-06T01:21:54.006Z,101524.23
2019-05-06T01:24:23.812Z,101516.59
2019-05-06T01:26:53.658Z,101513.84
2019-05-06T01:29:24.074Z,101515.78
2019-05-06T01:31:54.331Z,101515.52
2019-05-06T01:34:24.496Z,101510.02
2019-05-06T01:36:54.572Z,101512.72
2019-05-06T01:39:25.804Z,101516.17
2019-05-06T01:42:04.696Z,101517.63
2019-05-06T01:44:33.947Z,101516.43
2019-05-06T01:47:03.771Z,101515.48
2019-05-06T01:49:34.030Z,101522.92
2019-05-06T01:52:04.054Z,101524.63
2019-05-06T01:54:34.403Z,101514.23
2019-05-06T01:57:04.440Z,101512.89
2019-05-06T01:59:34.019Z,101513.84
2019-05-06T02:02:04.301Z,101507.02
2019-05-06T02:04:33.740Z,101508.16
2019-05-06T02:07:03.832Z,101512.58
2019-05-06T02:09:34.327Z,101506.13
2019-05-06T02:12:04.614Z,101511.87
2019-05-06T02:14:34.146Z,101510.52
2019-05-06T02:17:03.683Z,101507.33
2019-05-06T02:19:34.532Z,101506.34
2019-05-06T02:22:13.631Z,101508.83
2019-05-06T02:24:49.642Z,101507.00
2019-05-06T02:27:18.046Z,101503.97
2019-05-06T02:29:48.125Z,101504.13
2019-05-06T02:32:26.989Z,101510.06
2019-05-06T02:34:55.914Z,101512.16
2019-05-06T02:37:34.750Z,101505.19
2019-05-06T02:40:04.203Z,101501.15
2019-05-06T02:42:33.681Z,101505.43
2019-05-06T02:45:03.904Z,101504.44
2019-05-06T02:47:34.494Z,101499.79
2019-05-06T02:50:07.191Z,101496.20
2019-05-06T02:52:35.597Z,101492.77
2019-05-06T02:55:06.496Z,101491.22
2019-05-06T02:57:35.199Z,101490.97
2019-05-06T03:00:05.835Z,101496.12
2019-05-06T03:02:43.018Z,101490.14
2019-05-06T03:05:05.336Z,101494.31
2019-05-06T03:07:37.319Z,101492.23
2019-05-06T03:10:05.816Z,101492.73
2019-05-06T03:12:34.226Z,101492.88
2019-05-06T03:15:03.470Z,101490.08
2019-05-06T03:17:32.841Z,101493.14
2019-05-06T03:20:04.338Z,101495.48
2019-05-06T03:22:43.219Z,101491.20
2019-05-06T03:25:13.339Z,101500.86
2019-05-06T03:27:46.521Z,101500.25
2019-05-06T03:30:16.630Z,101501.95
2019-05-06T03:33:21.111Z,101503.80
2019-05-06T03:35:31.219Z,101505.04
2019-05-06T03:37:43.995Z,101500.90
2019-05-06T03:40:13.883Z,101499.42
2019-05-06T03:42:42.795Z,101499.56
2019-05-06T03:45:15.824Z,101500.05
2019-05-06T03:47:45.909Z,101490.99
2019-05-06T03:50:14.476Z,101491.48
2019-05-06T03:52:44.238Z,101497.13
2019-05-06T03:55:13.805Z,101498.72
2019-05-06T03:57:42.979Z,101493.87
2019-05-06T04:00:16.047Z,101497.41
2019-05-06T04:02:44.397Z,101495.47
2019-05-06T04:05:13.544Z,101496.59
2019-05-06T04:07:45.422Z,101490.72
2019-05-06T04:10:13.614Z,101485.09
2019-05-06T04:12:44.533Z,101487.39
2019-05-06T04:15:14.306Z,101483.46
2019-05-06T04:17:53.468Z,101487.00
2019-05-06T04:20:23.573Z,101489.04
2019-05-06T04:22:59.957Z,101485.20
2019-05-06T04:25:46.198Z,101485.55
2019-05-06T04:28:19.021Z,101484.55
2019-05-06T04:30:47.485Z,101486.33
2019-05-06T04:33:17.629Z,101490.55
2019-05-06T04:35:46.347Z,101485.62
2019-05-06T04:38:14.848Z,101487.20
2019-05-06T04:40:44.134Z,101487.06
2019-05-06T04:43:13.569Z,101483.41
2019-05-06T04:45:43.379Z,101488.03
2019-05-06T04:48:14.318Z,101492.16
2019-05-06T04:50:44.450Z,101490.06
2019-05-06T04:53:13.667Z,101487.05
2019-05-06T04:55:43.604Z,101490.02
2019-05-06T04:58:13.446Z,101490.08
2019-05-06T05:00:44.537Z,101484.74
2019-05-06T05:03:13.961Z,101482.45
2019-05-06T05:05:44.826Z,101489.09
2019-05-06T05:08:14.230Z,101490.41
2019-05-06T05:10:56.568Z,101490.92
2019-05-06T05:13:29.461Z,101483.21
2019-05-06T05:15:59.572Z,101481.27
2019-05-06T05:18:31.878Z,101469.94
2019-05-06T05:21:02.414Z,101454.20
2019-05-06T05:23:31.977Z,101455.62
2019-05-06T05:26:02.691Z,101455.62
2019-05-06T05:28:32.009Z,101457.88
2019-05-06T05:31:02.875Z,101457.45
2019-05-06T05:33:32.700Z,101454.98
2019-05-06T05:36:02.147Z,101454.08
2019-05-06T05:38:32.103Z,101459.08
2019-05-06T05:41:02.866Z,101458.47
2019-05-06T05:43:39.671Z,101460.80
2019-05-06T05:46:08.235Z,101464.17
2019-05-06T05:48:56.576Z,101454.88
2019-05-06T05:51:24.983Z,101457.36
2019-05-06T05:53:53.513Z,101457.07
2019-05-06T05:56:24.032Z,101457.07
2019-05-06T05:58:53.451Z,101451.66
2019-05-06T06:01:23.448Z,101453.80
2019-05-06T06:03:52.764Z,101453.80
2019-05-06T06:06:22.184Z,101456.59
2019-05-06T06:08:52.311Z,101448.83
2019-05-06T06:11:26.312Z,101445.62
2019-05-06T06:13:56.351Z,101445.62
2019-05-06T06:16:26.564Z,101447.15
2019-05-06T06:19:12.820Z,101456.51
2019-05-06T06:21:45.360Z,101456.51
2019-05-06T06:24:15.476Z,101438.40
2019-05-06T06:26:43.903Z,101438.40
2019-05-06T06:29:12.644Z,101441.98
2019-05-06T06:31:59.374Z,101436.08
2019-05-06T06:34:29.419Z,101430.14
2019-05-06T06:36:59.492Z,101430.14
2019-05-06T06:39:29.604Z,101436.09
2019-05-06T06:41:58.105Z,101432.71
2019-05-06T06:44:33.810Z,101426.25
2019-05-06T06:47:02.517Z,101431.98
2019-05-06T06:49:32.844Z,101432.98
2019-05-06T06:52:02.679Z,101432.98
2019-05-06T06:54:32.315Z,101421.72
2019-05-06T06:57:18.747Z,101438.56
2019-05-06T06:59:48.860Z,101430.33
2019-05-06T07:02:19.293Z,101430.07
2019-05-06T07:04:49.334Z,101426.59
2019-05-06T07:07:19.406Z,101432.73
2019-05-06T07:09:47.808Z,101432.27
2019-05-06T07:12:16.281Z,101416.82
2019-05-06T07:14:44.719Z,101423.06
2019-05-06T07:17:13.428Z,101419.95
2019-05-06T07:20:02.856Z,101416.75
2019-05-06T07:22:37.286Z,101420.34
2019-05-06T07:25:09.623Z,101412.92
2019-05-06T07:27:38.049Z,101424.36
2019-05-06T07:30:12.195Z,101408.74
2019-05-06T07:32:42.386Z,101411.59
2019-05-06T07:35:10.358Z,101408.91
2019-05-06T07:37:38.784Z,101419.70
2019-05-06T07:40:08.526Z,101418.34
2019-05-06T07:42:38.596Z,101411.72
2019-05-06T07:45:15.411Z,101411.32
2019-05-06T07:47:45.478Z,101414.38
2019-05-06T07:50:13.944Z,101414.77
2019-05-06T07:53:06.496Z,101402.39
2019-05-06T07:55:35.314Z,101405.86
2019-05-06T07:58:04.283Z,101421.15
2019-05-06T08:00:33.122Z,101415.86
2019-05-06T08:03:02.483Z,101416.54
2019-05-06T08:05:32.452Z,101409.70
2019-05-06T08:08:03.444Z,101403.03
2019-05-06T08:10:33.142Z,101407.96
2019-05-06T08:13:02.699Z,101406.48
2019-05-06T08:15:54.660Z,101405.77
2019-05-06T08:18:23.064Z,101403.00
2019-05-06T08:20:52.006Z,101397.72
2019-05-06T08:23:24.827Z,101393.30
2019-05-06T08:26:08.300Z,101399.35
2019-05-06T08:28:37.510Z,101403.30
2019-05-06T08:30:53.663Z,101393.05
2019-05-06T08:33:22.131Z,101383.69
2019-05-06T08:35:53.148Z,101384.13
2019-05-06T08:38:22.591Z,101392.53
2019-05-06T08:40:52.561Z,101390.46
2019-05-06T08:43:21.962Z,101379.28
2019-05-06T08:45:52.654Z,101389.27
2019-05-06T08:48:22.059Z,101385.39
2019-05-06T08:50:52.933Z,101378.02
2019-05-06T08:53:28.710Z,101383.34
2019-05-06T08:55:58.175Z,101384.20
2019-05-06T08:58:45.628Z,101384.77
2019-05-06T09:01:35.416Z,101385.38
2019-05-06T09:04:12.155Z,101379.10
2019-05-06T09:06:35.308Z,101371.61
2019-05-06T09:09:05.451Z,101377.13
2019-05-06T09:11:33.890Z,101376.84
2019-05-06T09:14:03.450Z,101380.35
2019-05-06T09:16:33.117Z,101369.52
2019-05-06T09:19:04.393Z,101380.69
2019-05-06T09:21:33.557Z,101360.70
2019-05-06T09:24:02.443Z,101376.50
2019-05-06T09:26:43.069Z,101366.17
2019-05-06T09:29:15.981Z,101369.70
2019-05-06T09:31:52.294Z,101372.67
2019-05-06T09:34:34.693Z,101374.61
2019-05-06T09:37:13.867Z,101375.67
2019-05-06T09:39:44.079Z,101355.91
2019-05-06T09:42:13.655Z,101353.73
2019-05-06T09:44:43.501Z,101362.77
2019-05-06T09:47:13.840Z,101367.61
2019-05-06T09:49:43.886Z,101374.56
2019-05-06T09:52:12.989Z,101366.69
2019-05-06T09:54:45.685Z,101371.77
2019-05-06T09:57:15.822Z,101367.40
2019-05-06T09:59:44.223Z,101363.80
2019-05-06T10:02:12.673Z,101363.20
2019-05-06T10:04:42.799Z,101364.36
2019-05-06T10:07:11.927Z,101380.11
2019-05-06T10:09:43.205Z,101374.80
2019-05-06T10:12:12.640Z,101375.63
2019-05-06T10:14:43.270Z,101374.58
2019-05-06T10:17:13.188Z,101378.03
2019-05-06T10:19:42.914Z,101373.02
2019-05-06T10:22:12.702Z,101371.90
2019-05-06T10:24:43.011Z,101367.59
2019-05-06T10:27:12.102Z,101370.09
2019-05-06T10:29:43.209Z,101363.04
2019-05-06T10:32:28.333Z,101361.97
2019-05-06T10:34:56.728Z,101354.99
2019-05-06T10:37:46.664Z,101350.59
2019-05-06T10:40:17.375Z,101358.05
2019-05-06T10:42:57.787Z,101362.63
2019-05-06T10:45:32.387Z,101351.58
2019-05-06T10:48:02.326Z,101366.30
2019-05-06T10:50:32.583Z,101344.50
2019-05-06T10:53:13.505Z,101323.72
2019-05-06T10:55:43.163Z,101332.78
2019-05-06T10:58:12.842Z,101338.32
2019-05-06T11:00:42.446Z,101331.84
2019-05-06T11:03:14.914Z,101329.09
2019-05-06T11:05:43.273Z,101327.29
2019-05-06T11:08:11.825Z,101333.61
2019-05-06T11:10:42.228Z,101336.80
2019-05-06T11:13:12.870Z,101342.20
2019-05-06T11:15:43.104Z,101347.75
2019-05-06T11:18:13.615Z,101375.05
2019-05-06T11:20:43.642Z,101382.80
2019-05-06T11:23:11.300Z,101387.64
2019-05-06T11:25:39.798Z,101388.31
2019-05-06T11:28:09.942Z,101395.03
2019-05-06T11:30:42.365Z,101388.90
2019-05-06T11:33:23.820Z,101384.55
2019-05-06T11:35:59.476Z,101369.08
2019-05-06T11:38:27.904Z,101374.22
2019-05-06T11:40:56.403Z,101372.28
2019-05-06T11:43:24.888Z,101368.19
2019-05-06T11:45:53.364Z,101362.77
2019-05-06T11:48:22.436Z,101366.59
2019-05-06T11:50:53.044Z,101355.26
2019-05-06T11:53:23.155Z,101349.95
2019-05-06T11:55:54.336Z,101359.33
2019-05-06T11:58:38.781Z,101338.59
2019-05-06T12:01:08.826Z,101340.44
2019-05-06T12:03:37.259Z,101343.76
2019-05-06T12:06:05.728Z,101346.20
2019-05-06T12:08:34.172Z,101346.64
2019-05-06T12:11:03.007Z,101349.17
2019-05-06T12:13:33.644Z,101360.03
2019-05-06T12:16:02.408Z,101346.56
2019-05-06T12:18:31.045Z,101349.61
2019-05-06T12:21:09.181Z,101342.66
2019-05-06T12:23:29.622Z,101336.58
2019-05-06T12:25:58.057Z,101338.98
2019-05-06T12:28:26.462Z,101345.72
2019-05-06T12:31:00.691Z,101343.61
2019-05-06T12:33:32.895Z,101345.98
2019-05-06T12:36:05.363Z,101343.94
2019-05-06T12:38:35.390Z,101347.05
2019-05-06T12:41:03.829Z,101347.02
2019-05-06T12:43:33.870Z,101346.68
2019-05-06T12:46:04.520Z,101347.65
2019-05-06T12:48:34.637Z,101355.75
2019-05-06T12:51:03.230Z,101368.38
2019-05-06T12:53:32.784Z,101374.17
2019-05-06T12:56:03.095Z,101390.28
2019-05-06T12:58:31.790Z,101388.41
2019-05-06T13:01:00.228Z,101395.40
2019-05-06T13:03:31.694Z,101393.83
2019-05-06T13:06:07.518Z,101398.95
2019-05-06T13:08:52.244Z,101408.65
2019-05-06T13:11:05.825Z,101453.23
2019-05-06T13:13:34.239Z,101441.20
2019-05-06T13:16:02.911Z,101436.80
2019-05-06T13:18:32.764Z,101421.49
2019-05-06T13:21:06.045Z,101419.19
2019-05-06T13:23:39.224Z,101433.06
2019-05-06T13:26:07.724Z,101439.12
2019-05-06T13:28:37.764Z,101437.37
2019-05-06T13:31:17.147Z,101432.07
2019-05-06T13:33:43.944Z,101423.09
2019-05-06T13:36:13.173Z,101426.14
2019-05-06T13:38:42.646Z,101418.65
2019-05-06T13:41:12.702Z,101421.31
2019-05-06T13:43:43.626Z,101417.22
2019-05-06T13:46:13.978Z,101409.23
2019-05-06T13:48:46.436Z,101412.41
2019-05-06T13:51:16.514Z,101419.25
2019-05-06T13:53:46.323Z,101420.65
2019-05-06T13:56:14.874Z,101413.80
2019-05-06T13:58:43.270Z,101412.55
2019-05-06T14:01:13.594Z,101413.48
2019-05-06T14:03:43.003Z,101412.66
2019-05-06T14:06:12.280Z,101415.12
2019-05-06T14:08:42.276Z,101406.97
2019-05-06T14:11:13.116Z,101413.00
2019-05-06T14:13:42.173Z,101413.81
2019-05-06T14:16:13.122Z,101401.64
2019-05-06T14:18:42.730Z,101403.02
2019-05-06T14:21:12.441Z,101397.13
2019-05-06T14:23:40.997Z,101407.05
2019-05-06T14:26:29.033Z,101395.77
2019-05-06T14:29:02.446Z,101391.49
2019-05-06T14:31:32.833Z,101389.72
2019-05-06T14:34:01.458Z,101391.55
2019-05-06T14:36:32.512Z,101388.00
2019-05-06T14:39:04.722Z,101381.82
2019-05-06T14:41:32.548Z,101388.00
2019-05-06T14:44:04.934Z,101397.87
2019-05-06T14:46:33.131Z,101400.28
2019-05-06T14:49:04.265Z,101400.67
2019-05-06T14:51:32.930Z,101405.05
2019-05-06T14:54:01.457Z,101395.66
2019-05-06T14:56:32.031Z,101398.84
2019-05-06T14:59:03.861Z,101390.98
2019-05-06T15:01:33.695Z,101386.29
2019-05-06T15:04:02.854Z,101389.48
2019-05-06T15:06:33.029Z,101392.54
2019-05-06T15:09:03.729Z,101383.56
2019-05-06T15:11:32.477Z,101387.43
2019-05-06T15:14:03.587Z,101390.20
2019-05-06T15:16:33.597Z,101390.19
2019-05-06T15:19:03.765Z,101385.13
2019-05-06T15:21:37.970Z,101386.98
2019-05-06T15:24:02.666Z,101382.48
2019-05-06T15:26:33.219Z,101375.36
2019-05-06T15:29:03.354Z,101384.58
2019-05-06T15:31:42.166Z,101384.19
2019-05-06T15:34:13.059Z,101394.43
2019-05-06T15:36:43.273Z,101390.84
2019-05-06T15:39:13.204Z,101391.55
2019-05-06T15:41:42.671Z,101390.45
2019-05-06T15:44:12.566Z,101393.57
2019-05-06T15:46:43.041Z,101384.95
2019-05-06T15:49:11.294Z,101396.00
2019-05-06T15:51:39.756Z,101401.94
2019-05-06T15:54:09.081Z,101395.03
2019-05-06T15:56:37.512Z,101397.30
2019-05-06T15:59:05.980Z,101397.00
2019-05-06T16:01:34.482Z,101396.95
2019-05-06T16:04:02.952Z,101401.91
2019-05-06T16:06:33.157Z,101400.95
2019-05-06T16:09:03.622Z,101408.31
2019-05-06T16:11:32.950Z,101412.59
2019-05-06T16:14:02.948Z,101415.97
2019-05-06T16:16:33.204Z,101423.64
2019-05-06T16:19:03.975Z,101435.95
2019-05-06T16:21:33.426Z,101449.78
2019-05-06T16:24:06.276Z,101436.28
2019-05-06T16:26:34.773Z,101435.45
2019-05-06T16:29:03.177Z,101438.56
2019-05-06T16:31:33.521Z,101433.51
2019-05-06T16:34:03.152Z,101433.02
2019-05-06T16:36:32.817Z,101440.33
2019-05-06T16:39:03.278Z,101441.49
2019-05-06T16:41:31.526Z,101437.42
2019-05-06T16:44:02.035Z,101438.89
2019-05-06T16:46:33.605Z,101440.59
2019-05-06T16:49:02.360Z,101438.03
2019-05-06T16:51:32.564Z,101440.60
2019-05-06T16:54:02.094Z,101440.43
2019-05-06T16:56:34.767Z,101435.69
2019-05-06T16:59:04.867Z,101440.62
2019-05-06T17:01:34.764Z,101435.33
2019-05-06T17:04:14.330Z,101430.42
2019-05-06T17:06:43.029Z,101437.39
2019-05-06T17:09:18.376Z,101441.11
2019-05-06T17:11:42.655Z,101433.64
2019-05-06T17:14:12.255Z,101433.97
2019-05-06T17:16:42.319Z,101434.31
2019-05-06T17:19:12.669Z,101436.69
2019-05-06T17:21:42.295Z,101437.52
2019-05-06T17:24:13.088Z,101439.75
2019-05-06T17:26:42.590Z,101444.52
2019-05-06T17:29:14.097Z,101451.88
2019-05-06T17:31:56.540Z,101440.65
2019-05-06T17:34:32.627Z,101449.01
2019-05-06T17:37:05.677Z,101446.27
2019-05-06T17:39:34.087Z,101445.95
2019-05-06T17:42:02.515Z,101446.30
2019-05-06T17:44:32.354Z,101440.34
2019-05-06T17:47:08.843Z,101445.28
2019-05-06T17:49:38.919Z,101451.89
2019-05-06T17:52:08.997Z,101448.67
2019-05-06T17:54:37.399Z,101445.95
2019-05-06T17:57:05.899Z,101455.31
2019-05-06T17:59:37.336Z,101453.45
2019-05-06T18:02:11.948Z,101453.93
2019-05-06T18:04:43.058Z,101449.19
2019-05-06T18:07:12.205Z,101459.04
2019-05-06T18:09:42.583Z,101450.37
2019-05-06T18:12:12.120Z,101460.73
2019-05-06T18:14:40.801Z,101462.27
2019-05-06T18:17:09.201Z,101454.59
2019-05-06T18:19:37.635Z,101457.48
2019-05-06T18:22:06.044Z,101462.92
2019-05-06T18:24:34.483Z,101463.91
2019-05-06T18:27:02.896Z,101464.93
2019-05-06T18:29:33.480Z,101469.00
2019-05-06T18:32:03.544Z,101461.17
2019-05-06T18:34:32.590Z,101473.39
2019-05-06T18:37:03.130Z,101465.89
2019-05-06T18:39:33.763Z,101464.34
2019-05-06T18:42:15.722Z,101462.45
2019-05-06T18:44:33.268Z,101468.39
2019-05-06T18:47:02.726Z,101473.81
2019-05-06T18:49:33.942Z,101469.55
2019-05-06T18:52:02.018Z,101474.25
2019-05-06T18:54:33.607Z,101474.09
2019-05-06T18:57:04.613Z,101478.98
2019-05-06T18:59:32.957Z,101478.98
2019-05-06T19:02:02.100Z,101486.94
2019-05-06T19:04:41.928Z,101477.41
2019-05-06T19:07:16.122Z,101488.27
2019-05-06T19:09:52.350Z,101496.38
2019-05-06T19:12:30.149Z,101496.48
2019-05-06T19:14:52.586Z,101496.48
2019-05-06T19:17:22.500Z,101505.98
2019-05-06T19:19:52.032Z,101512.42
2019-05-06T19:22:22.696Z,101510.20
2019-05-06T19:24:52.068Z,101508.33
2019-05-06T19:27:24.589Z,101519.16
2019-05-06T19:29:54.320Z,101519.16
2019-05-06T19:32:22.505Z,101520.83
2019-05-06T19:34:52.964Z,101517.75
2019-05-06T19:37:23.294Z,101520.44
2019-05-06T19:39:52.515Z,101520.44
2019-05-06T19:42:22.410Z,101520.04
2019-05-06T19:44:52.854Z,101520.04
2019-05-06T19:47:21.457Z,101520.69
2019-05-06T19:49:49.932Z,101515.61
2019-05-06T19:52:18.373Z,101514.56
2019-05-06T19:54:46.780Z,101519.14
2019-05-06T19:57:15.942Z,101518.41
2019-05-06T19:59:44.574Z,101516.51
2019-05-06T20:02:13.144Z,101516.51
2019-05-06T20:04:44.371Z,101524.64
2019-05-06T20:07:22.705Z,101518.48
2019-05-06T20:10:08.819Z,101527.32
2019-05-06T20:12:58.318Z,101536.47
2019-05-06T20:15:36.540Z,101536.47
2019-05-06T20:18:05.685Z,101529.16
2019-05-06T20:20:35.125Z,101538.27
2019-05-06T20:23:04.281Z,101525.53
2019-05-06T20:25:32.823Z,101525.53
2019-05-06T20:28:02.420Z,101529.36
2019-05-06T20:30:32.651Z,101529.36
2019-05-06T20:33:01.156Z,101527.12
2019-05-06T20:35:29.558Z,101527.12
2019-05-06T20:37:57.993Z,101531.20
2019-05-06T20:40:26.460Z,101521.98
2019-05-06T20:42:54.896Z,101526.75
2019-05-06T20:45:23.369Z,101526.55
2019-05-06T20:47:52.486Z,101524.01
2019-05-06T20:50:22.571Z,101524.01
2019-05-06T20:52:52.023Z,101521.91
2019-05-06T20:55:22.695Z,101526.86
2019-05-06T20:57:52.736Z,101525.47
2019-05-06T21:00:22.406Z,101520.86
2019-05-06T21:02:53.295Z,101520.86
2019-05-06T21:05:22.820Z,101523.56
2019-05-06T21:07:52.574Z,101529.70
2019-05-06T21:10:22.162Z,101526.48
2019-05-06T21:12:52.991Z,101529.19
2019-05-06T21:15:22.935Z,101529.19
2019-05-06T21:17:51.166Z,101520.52
2019-05-06T21:20:19.743Z,101529.83
2019-05-06T21:22:49.146Z,101526.23
2019-05-06T21:25:17.843Z,101539.78
2019-05-06T21:27:46.281Z,101531.62
2019-05-06T21:30:15.125Z,101531.08
2019-05-06T21:32:43.565Z,101531.08
2019-05-06T21:35:12.655Z,101518.22
2019-05-06T21:37:42.272Z,101524.61
2019-05-06T21:40:12.235Z,101524.61
2019-05-06T21:42:43.056Z,101526.94
2019-05-06T21:45:12.557Z,101525.80
2019-05-06T21:47:44.390Z,101525.80
2019-05-06T21:50:12.159Z,101514.63
2019-05-06T21:52:42.868Z,101514.63
2019-05-06T21:55:13.146Z,101517.58
2019-05-06T21:57:42.290Z,101517.58
2019-05-06T22:00:16.794Z,101526.04
2019-05-06T22:02:43.343Z,101516.31
2019-05-06T22:05:13.306Z,101529.70
2019-05-06T22:07:43.505Z,101529.70
2019-05-06T22:10:12.627Z,101531.52
2019-05-06T22:12:43.189Z,101531.52
2019-05-06T22:15:11.911Z,101520.83
2019-05-06T22:17:42.761Z,101528.14
2019-05-06T22:20:10.618Z,101512.25
2019-05-06T22:22:42.637Z,101519.44
2019-05-06T22:25:12.500Z,101520.08
2019-05-06T22:27:44.260Z,101520.58
2019-05-06T22:30:11.456Z,101520.58
2019-05-06T22:32:45.846Z,101504.80
2019-05-06T22:35:16.270Z,101509.20
2019-05-06T22:37:45.039Z,101502.09
2019-05-06T22:40:13.924Z,101491.47
2019-05-06T22:42:43.121Z,101491.47
2019-05-06T22:45:12.532Z,101502.39
2019-05-06T22:47:42.120Z,101502.84
2019-05-06T22:50:12.863Z,101502.84
2019-05-06T22:52:42.084Z,101497.56
2019-05-06T22:55:13.020Z,101507.70
2019-05-06T22:57:42.230Z,101511.39
2019-05-06T23:00:15.011Z,101517.46
2019-05-06T23:02:54.258Z,101508.45
2019-05-06T23:05:23.172Z,101512.34
2019-05-06T23:07:53.201Z,101512.34
2019-05-06T23:10:24.528Z,101517.49
2019-05-06T23:12:52.355Z,101515.63
2019-05-06T23:15:21.065Z,101515.95
2019-05-06T23:17:49.476Z,101518.73
2019-05-06T23:20:17.963Z,101507.30
2019-05-06T23:22:46.370Z,101518.13
2019-05-06T23:25:14.819Z,101524.61
2019-05-06T23:27:44.227Z,101527.76
2019-05-06T23:30:12.995Z,101523.27
2019-05-06T23:32:42.228Z,101528.44
2019-05-06T23:35:12.870Z,101535.09
2019-05-06T23:38:17.687Z,101532.77
2019-05-06T23:41:23.100Z,101527.59
2019-05-06T23:44:41.523Z,101527.59
2019-05-06T23:47:35.057Z,101535.63
2019-05-06T23:50:40.215Z,101541.17
2019-05-06T23:53:44.891Z,101533.66
2019-05-06T23:56:46.832Z,101545.24
2019-05-06T23:59:17.387Z,101546.14
